Flight Track Log - Related Links

Times and Time Zones

All times are in EDT time to prevent confusion due to time zone crossing. See the UAL4234 flight status page for this flight to view local times or setup timezone preferences in your user account.

Time Position Orientation Groundspeed Altitude Reporting Facility
EDT Latitude Longitude Course Direction KTS MPH feet Rate Location/Type
Fri 04:58:01 PM 29.9861 -95.3575 North 155 178 500  Level Houston Center
Fri 04:58:25 PM 30.0028 -95.3556 North 173 199 1,400 1,500 Climbing Houston Center
Fri 04:59:13 PM 30.0397 -95.3350 26° Northeast 201 231 2,300 1,636 Climbing Houston Center
Fri 05:00:15 PM 30.0956 -95.2967 31° Northeast 220 253 4,400 2,304 Climbing Houston Center
Fri 05:01:18 PM 30.1492 -95.2458 39° Northeast 242 278 7,100 2,256 Climbing Houston Center
Fri 05:02:20 PM 30.2069 -95.1919 39° Northeast 262 302 9,100 1,935 Climbing Houston Center
Fri 05:03:22 PM 30.2844 -95.1194 39° Northeast 293 337 11,100 1,597 Climbing Houston Center
Fri 05:04:24 PM 30.3617 -95.0483 38° Northeast 344 396 12,400 1,597 Climbing Houston Center
Fri 05:05:26 PM 30.4428 -94.9750 38° Northeast 359 413 14,400 1,694 Climbing Houston Center
Fri 05:06:28 PM 30.5283 -94.9103 33° Northeast 367 422 15,900 1,306 Climbing Houston Center
Fri 05:07:30 PM 30.6178 -94.8400 34° Northeast 380 437 17,100 1,161 Climbing Houston Center
Fri 05:08:32 PM 30.7311 -94.7553 33° Northeast 400 460 18,300 1,200 Climbing Houston Center
Fri 05:09:35 PM 30.8289 -94.6797 34° Northeast 417 480 19,600 1,296 Climbing Houston Center
Fri 05:10:37 PM 30.9269 -94.6028 34° Northeast 425 489 21,000 1,325 Climbing Houston Center
Fri 05:10:52 PM 30.9481 -94.5892 29° Northeast 414 476 21,300 1,459 Climbing Fort Worth Center
Fri 05:11:51 PM 31.0464 -94.5086 35° Northeast 414 476 22,800 1,462 Climbing Fort Worth Center
Fri 05:12:51 PM 31.1447 -94.4353 33° Northeast 414 476 24,200 1,388 Climbing Fort Worth Center
Fri 05:13:52 PM 31.2472 -94.3542 34° Northeast 421 484 25,600 1,350 Climbing Fort Worth Center
Fri 05:14:51 PM 31.3517 -94.2731 34° Northeast 433 498 26,900 1,210 Climbing Fort Worth Center
Fri 05:15:51 PM 31.4542 -94.1942 33° Northeast 439 505 28,000 1,140 Climbing Fort Worth Center
Fri 05:16:52 PM 31.5583 -94.1100 35° Northeast 439 505 29,200 1,200 Climbing Fort Worth Center
Fri 05:17:51 PM 31.6628 -94.0331 32° Northeast 444 511 30,400 1,210 Climbing Fort Worth Center
Fri 05:18:51 PM 31.7669 -93.9486 35° Northeast 444 511 31,600 1,140 Climbing Fort Worth Center
Fri 05:19:52 PM 31.8753 -93.8661 33° Northeast 449 517 32,700 1,150 Climbing Fort Worth Center
Fri 05:20:51 PM 31.9753 -93.7792 36° Northeast 449 517 33,900 1,109 Climbing Fort Worth Center
Fri 05:21:51 PM 32.0794 -93.7039 31° Northeast 444 511 34,900 550 Climbing Fort Worth Center
Fri 05:22:51 PM 32.1933 -93.6036 37° Northeast 449 517 35,000 50 Climbing Fort Worth Center
Fri 05:23:51 PM 32.3033 -93.5153 34° Northeast 463 533 35,000  Level Fort Worth Center
Fri 05:24:51 PM 32.4172 -93.4219 35° Northeast 481 554 35,000  Level Fort Worth Center
Fri 05:25:51 PM 32.5375 -93.3278 33° Northeast 495 570 35,000  Level Fort Worth Center
Fri 05:26:51 PM 32.6575 -93.2311 34° Northeast 510 587 35,000  Level Fort Worth Center
Fri 05:27:51 PM 32.7692 -93.1419 34° Northeast 532 612 35,000  Level Fort Worth Center
Fri 05:28:52 PM 32.8889 -93.0397 36° Northeast 527 606 35,000  Level Fort Worth Center
Fri 05:29:51 PM 32.9931 -92.9133 45° Northeast 527 606 35,000  Level Fort Worth Center
Fri 05:30:51 PM 33.0944 -92.7742 49° Northeast 533 613 35,000  Level Fort Worth Center
Fri 05:34:17 PM 33.4356 -92.2989 49° Northeast 557 641 35,000  Level Memphis Center
Fri 05:35:17 PM 33.5317 -92.1614 50° Northeast 545 627 35,000  Level Memphis Center
Fri 05:36:17 PM 33.6294 -92.0236 50° Northeast 545 627 35,000  Level Memphis Center
Fri 05:37:17 PM 33.7272 -91.8883 49° Northeast 545 627 35,000  Level Memphis Center
Fri 05:38:17 PM 33.8206 -91.7500 51° Northeast 540 621 35,000  Level Memphis Center
Fri 05:39:17 PM 33.9267 -91.5939 51° Northeast 546 628 35,000  Level Memphis Center
Fri 05:40:17 PM 34.0239 -91.4550 50° Northeast 539 620 35,000  Level Memphis Center
Fri 05:41:17 PM 34.1169 -91.3156 51° Northeast 546 628 35,000  Level Memphis Center
Fri 05:42:17 PM 34.2181 -91.1736 49° Northeast 546 628 35,000  Level Memphis Center
Fri 05:43:17 PM 34.3044 -91.0461 51° Northeast 546 628 35,000  Level Memphis Center
Fri 05:44:17 PM 34.4011 -90.9033 51° Northeast 546 628 35,000  Level Memphis Center
Fri 05:45:17 PM 34.4975 -90.7603 51° Northeast 546 628 35,000  Level Memphis Center
Fri 05:46:17 PM 34.5939 -90.6169 51° Northeast 545 627 35,000  Level Memphis Center
Fri 05:47:17 PM 34.6903 -90.4758 50° Northeast 550 633 35,000  Level Memphis Center
Fri 05:48:17 PM 34.7967 -90.3167 51° Northeast 545 627 35,000  Level Memphis Center
Fri 05:49:17 PM 34.8944 -90.1722 50° Northeast 545 627 35,000  Level Memphis Center
Fri 05:50:17 PM 34.9881 -90.0225 53° Northeast 550 633 35,000  Level Memphis Center
Fri 05:51:17 PM 35.0208 -89.8447 77° East 536 617 35,000  Level Memphis Center
Fri 05:52:17 PM 35.0222 -89.6800 89° East 531 611 35,000  Level Memphis Center
Fri 05:53:17 PM 35.0211 -89.4975 90° East 536 617 35,000  Level Memphis Center
Fri 05:54:17 PM 35.0197 -89.3175 90° East 530 610 35,000  Level Memphis Center
Fri 05:55:17 PM 35.0200 -89.1400 90° East 530 610 35,000  Level Memphis Center
Fri 05:56:17 PM 35.0200 -88.9422 90° East 525 604 35,000  Level Memphis Center
Fri 05:57:17 PM 35.0200 -88.7597 90° East 530 610 35,000  Level Memphis Center
Fri 05:58:17 PM 35.0175 -88.5822 91° East 530 610 35,000  Level Memphis Center
Fri 05:59:17 PM 35.0192 -88.4072 89° East 525 604 35,000  Level Memphis Center
Fri 06:00:17 PM 35.0189 -88.2603 90° East 525 604 35,000  Level Memphis Center
Fri 06:01:17 PM 35.0169 -88.0397 91° East 540 621 35,000  Level Memphis Center
Fri 06:02:17 PM 35.0156 -87.8569 90° East 540 621 35,000  Level Memphis Center
Fri 06:03:17 PM 35.0117 -87.6797 91° East 528 608 35,000  Level Memphis Center
Fri 06:04:17 PM 35.0097 -87.4947 91° East 535 616 35,000  Level Memphis Center
Fri 06:05:17 PM 35.0075 -87.3172 91° East 530 610 35,000  Level Memphis Center
Fri 06:07:05 PM 35.0064 -87.0108 90° East 562 647 35,000  Level Atlanta Center
Fri 06:08:05 PM 35.0022 -86.8306 92° East 550 633 35,000  Level Atlanta Center
Fri 06:09:05 PM 34.9978 -86.6531 92° East 534 615 35,000  Level Atlanta Center
Fri 06:10:05 PM 34.9950 -86.4803 91° East 516 594 35,000  Level Atlanta Center
Fri 06:11:05 PM 34.9919 -86.3156 91° East 503 579 35,000  Level Atlanta Center
Fri 06:12:05 PM 34.9892 -86.1303 91° East 498 573 35,000  Level Atlanta Center
Fri 06:13:05 PM 35.0353 -85.9869 69° East 492 566 35,000  Level Atlanta Center
Fri 06:14:05 PM 35.1022 -85.8286 63° Northeast 498 573 35,000  Level Atlanta Center
Fri 06:15:05 PM 35.1714 -85.6650 63° Northeast 518 596 35,000  Level Atlanta Center
Fri 06:16:05 PM 35.2403 -85.5008 63° Northeast 525 604 35,000  Level Atlanta Center
Fri 06:17:05 PM 35.3131 -85.3342 62° Northeast 530 610 35,000  Level Atlanta Center
Fri 06:18:05 PM 35.3814 -85.1697 63° Northeast 530 610 35,000  Level Atlanta Center
Fri 06:19:05 PM 35.4494 -85.0075 63° Northeast 530 610 35,000  Level Atlanta Center
Fri 06:20:05 PM 35.5153 -84.8450 64° Northeast 530 610 35,000  Level Atlanta Center
Fri 06:21:05 PM 35.5831 -84.6822 63° Northeast 530 610 35,000  Level Atlanta Center
Fri 06:22:05 PM 35.6569 -84.4989 64° Northeast 530 610 35,000  Level Atlanta Center
Fri 06:23:05 PM 35.7242 -84.3356 63° Northeast 530 610 35,000  Level Atlanta Center
Fri 06:24:05 PM 35.7933 -84.1692 63° Northeast 531 611 35,000  Level Atlanta Center
Fri 06:25:05 PM 35.8600 -84.0028 64° Northeast 531 611 35,000  Level Atlanta Center
Fri 06:26:05 PM 35.9247 -83.8386 64° Northeast 531 611 35,000  Level Atlanta Center
Fri 06:27:05 PM 35.9889 -83.6717 65° Northeast 531 611 35,000  Level Atlanta Center
Fri 06:28:05 PM 36.0489 -83.5044 66° East 531 611 35,000  Level Atlanta Center
Fri 06:29:05 PM 36.1083 -83.3372 66° East 526 605 35,000  Level Atlanta Center
Fri 06:30:05 PM 36.1700 -83.1719 65° Northeast 526 605 35,000  Level Atlanta Center
Fri 06:31:05 PM 36.2269 -83.0092 67° East 520 598 35,000  Level Atlanta Center
Fri 06:32:05 PM 36.2903 -82.8436 65° Northeast 520 598 35,000  Level Atlanta Center
Fri 06:33:05 PM 36.3489 -82.6803 66° East 520 598 35,000  Level Atlanta Center
Fri 06:34:05 PM 36.4056 -82.5142 67° East 520 598 35,000 -100 Level Atlanta Center
Fri 06:35:05 PM 36.4658 -82.3503 65° Northeast 520 598 34,800 -600 Descending Atlanta Center
Fri 06:36:05 PM 36.5219 -82.1942 66° East 515 593 33,800 -900 Descending Atlanta Center
Fri 06:37:05 PM 36.5758 -82.0406 66° East 490 564 33,000 -400 Descending Atlanta Center
Fri 06:38:05 PM 36.6275 -81.8892 67° East 479 551 33,000 -300 Level Atlanta Center
Fri 06:39:05 PM 36.6725 -81.7275 71° East 479 551 32,400 -850 Descending Atlanta Center
Fri 06:40:05 PM 36.7131 -81.5606 73° East 490 564 31,300 -1,100 Descending Atlanta Center
Fri 06:41:05 PM 36.7514 -81.3936 74° East 490 564 30,200 -650 Descending Atlanta Center
Fri 06:42:05 PM 36.7853 -81.2267 76° East 498 573 30,000 -500 Descending Atlanta Center
Fri 06:43:05 PM 36.8250 -81.0539 74° East 498 573 29,200 -1,237 Descending Atlanta Center
Fri 06:45:19 PM 36.9064 -80.7039 74° East 491 565 26,000 -1,299 Descending Washington Center
Fri 06:46:19 PM 36.9475 -80.5247 74° East 480 552 25,000 -500 Descending Washington Center
Fri 06:47:19 PM 36.9811 -80.3631 75° East 480 552 25,000 -50 Level Washington Center
Fri 06:48:19 PM 37.0169 -80.1961 75° East 490 564 24,900 -500 Descending Washington Center
Fri 06:49:19 PM 37.0353 -80.0411 82° East 477 549 24,000 -450 Descending Washington Center
Fri 06:50:19 PM 37.0019 -79.9247 110° East 420 483 24,000 -300 Level Washington Center
Fri 06:51:19 PM 36.9586 -79.7975 113° Southeast 397 457 23,400 -800 Descending Washington Center
Fri 06:52:19 PM 36.9164 -79.6886 116° Southeast 373 429 22,400 -1,100 Descending Washington Center
Fri 06:53:19 PM 36.8653 -79.5978 125° Southeast 305 351 21,200 -1,100 Descending Washington Center
Fri 06:54:19 PM 36.7981 -79.5425 147° Southeast 293 337 20,200 -600 Descending Washington Center
Fri 06:55:19 PM 36.7331 -79.4897 147° Southeast 288 331 20,000 -100 Descending Washington Center
Fri 06:56:19 PM 36.6783 -79.4431 146° Southeast 272 313 20,000 -450 Level Washington Center
Fri 06:57:19 PM 36.6214 -79.3961 147° Southeast 267 307 19,100 -1,900 Descending Washington Center
Fri 06:58:19 PM 36.5542 -79.3411 147° Southeast 273 314 16,200 -1,650 Descending Washington Center
Fri 06:59:19 PM 36.5281 -79.2442 109° East 279 321 15,800 -200 Descending Washington Center
Fri 07:00:19 PM 36.5939 -79.1414 51° Northeast 250 288 15,800  Level Washington Center
Fri 07:01:19 PM 36.6506 -79.0583 50° Northeast 272 313 15,800  Level Washington Center
Fri 07:02:19 PM 36.7092 -78.9781 48° Northeast 300 345 15,800 -400 Level Washington Center
Fri 07:03:19 PM 36.7639 -79.0272 324° Northwest 184 212 15,000 -850 Descending Washington Center
Fri 07:04:19 PM 36.7331 -79.0881 238° Southwest 122 140 14,100 -600 Descending Washington Center
Fri 07:05:19 PM 36.7000 -79.1436 233° Southwest 153 176 13,800 -150 Descending Washington Center
Fri 07:06:19 PM 36.6589 -79.2011 228° Southwest 200 230 13,800 -650 Level Washington Center
Fri 07:07:19 PM 36.6103 -79.1447 137° Southeast 156 180 12,500 -1,271 Descending Washington Center
Fri 07:07:44 PM 36.5900 -79.1308 151° Southeast 245 282 12,000 -900 Descending Washington Center
Fri 07:08:19 PM 36.5569 -79.1189 164° South 199 229 11,600 -500 Descending Washington Center
Fri 07:08:44 PM 36.5364 -79.1050 152° Southeast 200 230 11,500 -689 Descending Washington Center
Fri 07:09:20 PM 36.5056 -79.0908 160° South 204 235 10,900 -885 Descending Washington Center
Fri 07:09:45 PM 36.4808 -79.0767 155° Southeast 214 246 10,600 -1,017 Descending Washington Center
Fri 07:10:19 PM 36.4506 -79.0469 142° Southeast 213 245 9,900 -600 Descending Washington Center
Fri 07:10:45 PM 36.4281 -79.0253 142° Southeast 255 293 10,000  Climbing Washington Center
Fri 07:11:19 PM 36.3978 -78.9931 139° Southeast 226 260 9,900  Descending Washington Center
Fri 07:11:46 PM 36.3775 -78.9742 143° Southeast 238 274 10,000 100 Climbing Washington Center
Fri 07:12:19 PM 36.3511 -78.9447 138° Southeast 248 285 10,000 -295 Level Washington Center
Fri 07:12:47 PM 36.3186 -78.9147 143° Southeast 245 282 9,700 -1,200 Descending Washington Center
Fri 07:13:19 PM 36.2922 -78.8853 138° Southeast 253 291 8,800 -1,700 Descending Washington Center
Fri 07:13:47 PM 36.2661 -78.8558 138° Southeast 257 296 8,000 -1,600 Descending Washington Center
Fri 07:14:19 PM 36.2394 -78.8317 144° Southeast 263 303 7,200 -1,180 Descending Washington Center
Fri 07:14:48 PM 36.2092 -78.7969 137° Southeast 268 308 6,800 -800 Descending Washington Center
Fri 07:15:19 PM 36.1867 -78.7781 146° Southeast 263 303 6,400 -800 Descending Washington Center
Fri 07:15:48 PM 36.1581 -78.7564 149° Southeast 204 235 6,000 -429 Descending Washington Center
Fri 07:16:43 PM 36.1169 -78.7314 154° Southeast 176 203 5,800 -590 Descending Washington Center
Fri 07:17:50 PM 36.0939 -78.6533 110° East 237 273 4,800 -803 Descending Washington Center
Fri 07:18:50 PM 36.0792 -78.5758 103° East 232 267 4,100 -744 Descending Washington Center
Fri 07:19:51 PM 36.0506 -78.5594 155° Southeast 144 166 3,300 -545 Descending Washington Center
Fri 07:20:51 PM 36.0347 -78.6025 246° West 120 138 3,000 -157 Descending Washington Center
Fri 07:21:46 PM 36.0133 -78.6297 226° Southwest 137 158 3,000 -103 Level Washington Center
Fri 07:22:47 PM 35.9808 -78.6722 227° Southwest 147 169 2,800 -417 Descending Washington Center
Fri 07:23:41 PM 35.9572 -78.6969 220° Southwest 144 166 2,200 -667 Descending Washington Center

Login

Don't have an account? Register now (free) for customized features, flight alerts, and more!